Time;durP1;ratioP1;P1;durP2;ratioP2;P2;SDS_P1;SDS_P2;PMS_P1;PMS_P2;Temp;Humidity;BMP_temperature;BMP_pressure;BME280_temperature;BME280_humidity;BME280_pressure;Samples;Min_cycle;Max_cycle;Signal;HPM_P1;HPM_P2
2022/06/16 00:00:25;;;;;;;4.63;2.15;;;;;;;22.69;40.75;101771.44;5088549;28;20071;-64
2022/06/16 00:02:53;;;;;;;5.57;2.78;;;;;;;22.69;40.66;101771.44;5099037;28;20051;-64
2022/06/16 00:05:25;;;;;;;3.83;1.80;;;;;;;22.67;40.73;101779.94;5100405;28;20074;-65
2022/06/16 00:07:53;;;;;;;4.38;1.65;;;;;;;22.65;40.73;101778.56;5097911;28;20048;-65
2022/06/16 00:10:21;;;;;;;6.43;2.58;;;;;;;22.65;40.71;101781.31;5097550;28;20047;-64
2022/06/16 00:12:49;;;;;;;5.35;1.70;;;;;;;22.62;40.82;101759.97;5099344;28;20051;-65
2022/06/16 00:15:20;;;;;;;3.58;1.80;;;;;;;22.62;40.97;101768.19;5091477;28;20273;-65
2022/06/16 00:17:49;;;;;;;3.50;2.13;;;;;;;22.61;40.84;101772.00;5100728;28;20092;-64
2022/06/16 00:20:18;;;;;;;5.05;2.00;;;;;;;22.57;40.78;101771.75;5096876;28;20056;-65
2022/06/16 00:22:45;;;;;;;3.78;1.63;;;;;;;22.56;40.72;101769.28;5102317;28;20533;-65
2022/06/16 00:25:14;;;;;;;2.75;1.63;;;;;;;22.53;40.95;101773.44;5102129;28;20051;-63
2022/06/16 00:27:43;;;;;;;8.38;2.53;;;;;;;22.54;40.63;101780.53;5098982;28;20074;-65
2022/06/16 00:30:12;;;;;;;8.88;2.15;;;;;;;22.49;40.89;101772.38;5101015;28;20036;-65
2022/06/16 00:32:41;;;;;;;4.75;2.20;;;;;;;22.50;40.95;101781.41;5102297;28;20070;-65
2022/06/16 00:35:12;;;;;;;5.50;2.10;;;;;;;22.48;40.64;101776.19;5100359;28;20053;-65
2022/06/16 00:37:40;;;;;;;5.85;2.30;;;;;;;22.46;40.89;101781.13;5102407;28;20066;-65
2022/06/16 00:40:09;;;;;;;3.95;1.92;;;;;;;22.43;40.68;101778.97;5097292;28;20044;-65
2022/06/16 00:42:39;;;;;;;4.50;2.50;;;;;;;22.43;40.84;101789.09;5097885;28;20066;-65
2022/06/16 00:45:40;;;;;;;3.85;1.83;;;;;;;22.39;40.75;101788.84;5101026;28;20075;-65
2022/06/16 00:48:08;;;;;;;5.38;1.70;;;;;;;22.37;40.80;101796.50;5093936;28;20040;-64
2022/06/16 00:50:37;;;;;;;5.68;2.10;;;;;;;22.35;40.63;101790.47;5101745;28;20040;-65
2022/06/16 00:53:05;;;;;;;4.22;1.98;;;;;;;22.35;40.74;101787.75;5096956;28;20048;-65
2022/06/16 00:55:36;;;;;;;4.45;1.90;;;;;;;22.30;40.67;101785.00;5100433;28;20056;-65
2022/06/16 00:58:04;;;;;;;5.40;1.52;;;;;;;22.32;40.88;101791.84;5097903;28;20098;-65
2022/06/16 01:00:33;;;;;;;4.68;2.03;;;;;;;22.30;40.85;101801.44;5097956;28;20070;-66
2022/06/16 01:03:01;;;;;;;3.85;1.77;;;;;;;22.27;40.66;101800.09;5101065;28;20124;-65
2022/06/16 01:05:27;;;;;;;4.28;1.90;;;;;;;22.27;40.72;101802.00;5099393;28;20055;-67
2022/06/16 01:07:57;;;;;;;4.53;1.80;;;;;;;22.24;40.83;101797.91;5102014;28;20094;-65
2022/06/16 01:10:33;;;;;;;6.07;2.08;;;;;;;22.22;40.88;101796.53;5094660;28;20102;-65
2022/06/16 01:16:11;;;;;;;6.50;2.03;;;;;;;22.15;40.85;101802.28;5097472;28;20070;-65
2022/06/16 01:18:47;;;;;;;5.38;1.75;;;;;;;22.11;40.91;101803.13;5101917;28;20108;-65
2022/06/16 01:21:23;;;;;;;2.92;2.20;;;;;;;22.12;40.83;101823.94;5103467;28;20055;-64
2022/06/16 01:24:16;;;;;;;4.38;2.10;;;;;;;22.09;40.98;101811.63;5103378;28;20102;-64
2022/06/16 01:27:03;;;;;;;4.75;2.03;;;;;;;22.06;40.80;101809.44;5105579;28;20044;-65
2022/06/16 01:29:39;;;;;;;7.97;2.33;;;;;;;22.04;40.94;101817.09;5093949;28;20465;-65
2022/06/16 01:32:14;;;;;;;5.55;2.05;;;;;;;22.03;40.89;101820.94;5092733;28;20041;-64
2022/06/16 01:34:48;;;;;;;5.20;2.22;;;;;;;22.00;40.98;101824.19;5096998;28;20074;-64
2022/06/16 01:37:22;;;;;;;4.32;2.05;;;;;;;21.97;41.00;101828.28;5104167;28;20072;-64
2022/06/16 01:39:59;;;;;;;3.38;2.00;;;;;;;21.95;40.86;101826.91;5091965;28;20086;-65
2022/06/16 01:42:35;;;;;;;5.25;2.92;;;;;;;21.93;40.94;101829.09;5095242;28;20044;-64
2022/06/16 01:45:12;;;;;;;3.67;2.15;;;;;;;21.88;40.91;101824.47;5098966;28;20059;-64
2022/06/16 01:47:43;;;;;;;3.72;2.08;;;;;;;21.86;41.03;101828.56;5101745;28;20751;-64
2022/06/16 01:50:14;;;;;;;5.72;2.25;;;;;;;21.84;40.93;101822.53;5103587;28;20087;-65
2022/06/16 01:52:48;;;;;;;3.65;2.03;;;;;;;21.84;40.99;101822.53;5103920;28;20044;-65
2022/06/16 01:55:21;;;;;;;5.10;2.38;;;;;;;21.81;40.98;101829.38;5102653;28;20553;-64
2022/06/16 01:57:53;;;;;;;7.00;2.00;;;;;;;21.75;40.96;101817.63;5110831;28;20063;-66
2022/06/16 02:00:25;;;;;;;4.40;1.98;;;;;;;21.77;41.06;101825.56;5102054;28;20045;-65
2022/06/16 02:02:59;;;;;;;3.45;2.08;;;;;;;21.76;41.02;101827.47;5088199;28;20128;-65
2022/06/16 02:05:30;;;;;;;3.08;2.13;;;;;;;21.73;40.77;101829.94;5104169;28;20040;-65
2022/06/16 02:08:04;;;;;;;7.60;2.53;;;;;;;21.73;41.09;101833.47;5101926;28;20064;-65
2022/06/16 02:10:36;;;;;;;4.75;2.22;;;;;;;21.70;41.06;101830.47;5093481;28;20045;-65
2022/06/16 02:13:06;;;;;;;5.65;2.42;;;;;;;21.68;40.98;101828.00;5100280;28;20516;-65
2022/06/16 02:15:49;;;;;;;4.88;2.38;;;;;;;21.65;41.07;101817.59;5102556;28;20052;-65
2022/06/16 02:18:22;;;;;;;6.05;2.20;;;;;;;21.63;41.21;101819.78;5102187;28;20048;-65
2022/06/16 02:20:58;;;;;;;8.45;2.00;;;;;;;21.61;41.08;101823.91;5098728;28;20071;-65
2022/06/16 02:23:26;;;;;;;8.45;2.20;;;;;;;21.60;41.05;101828.53;5102415;28;20052;-65
2022/06/16 02:25:56;;;;;;;4.28;2.30;;;;;;;21.57;40.97;101831.81;5106162;28;20040;-64
2022/06/16 02:28:25;;;;;;;6.20;2.75;;;;;;;21.54;41.15;101824.16;5093690;28;20520;-65
2022/06/16 02:31:08;;;;;;;4.72;2.42;;;;;;;21.52;41.08;101823.59;5100902;28;20055;-65
2022/06/16 02:33:45;;;;;;;3.05;2.15;;;;;;;21.51;41.11;101837.56;5098958;28;20052;-66
2022/06/16 02:36:27;;;;;;;4.43;2.40;;;;;;;21.49;41.10;101837.81;5102790;28;20189;-65
2022/06/16 02:39:06;;;;;;;4.80;2.10;;;;;;;21.47;41.15;101845.47;5102148;28;20087;-65
2022/06/16 02:41:45;;;;;;;5.72;2.60;;;;;;;21.46;41.16;101862.16;5100006;28;20553;-65
2022/06/16 02:44:21;;;;;;;6.57;2.50;;;;;;;21.43;41.17;101874.47;5102267;28;20044;-65
2022/06/16 02:46:54;;;;;;;;;;;;;;;21.40;41.07;101873.09;5103796;28;20047;-64
2022/06/16 02:49:31;;;;;;;5.70;2.88;;;;;;;21.36;41.10;101882.09;5099907;28;19920;-65
2022/06/16 02:52:10;;;;;;;5.15;2.28;;;;;;;21.33;41.22;101880.72;5102485;28;20082;-65
2022/06/16 02:54:46;;;;;;;5.93;3.00;;;;;;;21.31;41.23;101876.63;5101374;28;20359;-64
2022/06/16 02:57:21;;;;;;;4.97;2.45;;;;;;;21.25;41.23;101881.25;5089618;28;20047;-65
2022/06/16 02:59:54;;;;;;;4.03;2.35;;;;;;;21.23;41.26;101880.69;5098537;28;20118;-64
2022/06/16 03:02:25;;;;;;;3.40;2.33;;;;;;;21.22;41.18;101880.97;5095597;28;20043;-64
2022/06/16 03:04:56;;;;;;;7.93;2.80;;;;;;;21.19;41.32;101878.72;5102825;28;20076;-64
2022/06/16 03:07:25;;;;;;;4.18;2.10;;;;;;;21.18;41.22;101880.63;5100980;28;20039;-64
2022/06/16 03:09:54;;;;;;;5.65;2.40;;;;;;;21.16;41.38;101887.47;5101171;28;20412;-64
2022/06/16 03:12:22;;;;;;;9.18;2.17;;;;;;;21.13;41.53;101883.34;5101420;28;20044;-64
2022/06/16 03:14:49;;;;;;;4.35;2.28;;;;;;;21.11;41.36;101885.53;5101972;28;20078;-64
2022/06/16 03:17:18;;;;;;;6.30;2.25;;;;;;;21.10;41.27;101879.25;5098504;28;20086;-64
2022/06/16 03:19:47;;;;;;;8.27;2.70;;;;;;;21.09;41.30;101891.25;5101150;28;20076;-64
2022/06/16 03:22:14;;;;;;;6.00;2.63;;;;;;;21.08;41.28;101895.09;5101556;28;20086;-66
2022/06/16 03:24:42;;;;;;;4.95;2.30;;;;;;;21.06;41.35;101896.44;5102862;28;20111;-64
2022/06/16 03:27:12;;;;;;;4.65;2.25;;;;;;;21.03;41.32;101889.59;5100745;28;20339;-65
2022/06/16 03:29:40;;;;;;;6.38;2.63;;;;;;;21.02;41.24;101895.31;5101538;28;20055;-65
2022/06/16 03:32:08;;;;;;;6.40;2.30;;;;;;;20.98;41.25;101886.00;5093970;28;20071;-65
2022/06/16 03:34:36;;;;;;;4.55;2.13;;;;;;;20.96;41.24;101880.00;5101092;28;20059;-66
2022/06/16 03:37:06;;;;;;;4.80;2.17;;;;;;;20.95;41.39;101875.63;5100475;28;20142;-65
2022/06/16 03:39:34;;;;;;;3.90;2.28;;;;;;;20.94;41.37;101872.06;5095681;28;20048;-65
2022/06/16 03:42:01;;;;;;;6.63;2.47;;;;;;;20.93;41.45;101866.84;5098878;28;20052;-65
2022/06/16 03:44:29;;;;;;;5.07;2.53;;;;;;;20.92;41.39;101878.88;5099945;28;20079;-66
2022/06/16 03:46:57;;;;;;;6.38;2.55;;;;;;;20.88;41.53;101875.84;5100504;28;20078;-65
2022/06/16 03:49:25;;;;;;;6.97;2.40;;;;;;;20.88;41.46;101894.16;5098011;28;20059;-65
2022/06/16 03:51:52;;;;;;;4.28;2.05;;;;;;;20.87;41.34;101903.44;5101184;28;20079;-66
2022/06/16 03:58:08;;;;;;;4.38;2.40;;;;;;;20.82;41.42;101915.16;5099013;28;20035;-65
2022/06/16 04:00:36;;;;;;;4.15;2.50;;;;;;;20.78;41.68;101917.63;5087622;28;20048;-65
2022/06/16 04:05:49;;;;;;;6.18;2.67;;;;;;;20.76;41.45;101930.75;5089327;28;20048;-63
2022/06/16 04:08:19;;;;;;;4.35;2.50;;;;;;;20.75;41.42;101933.75;5098660;28;20067;-64
2022/06/16 04:10:47;;;;;;;5.10;2.47;;;;;;;20.71;41.54;101927.97;5091471;28;20101;-67
2022/06/16 04:13:17;;;;;;;5.78;2.85;;;;;;;20.70;41.55;101928.25;5102246;28;20048;-65
2022/06/16 04:15:51;;;;;;;4.40;2.38;;;;;;;20.67;41.66;101929.59;5096299;28;20123;-65
2022/06/16 04:18:19;;;;;;;4.65;2.05;;;;;;;20.65;41.65;101937.22;5104923;28;20360;-65
2022/06/16 04:20:48;;;;;;;8.68;3.17;;;;;;;20.62;41.64;101934.19;5101383;28;20105;-65
2022/06/16 04:23:23;;;;;;;;;;;;;;;20.60;41.72;101934.47;5101799;28;20071;-66
2022/06/16 04:25:51;;;;;;;5.88;2.60;;;;;;;20.60;41.75;101937.19;5096150;28;19923;-65
2022/06/16 04:28:20;;;;;;;5.32;2.63;;;;;;;20.57;41.79;101948.63;5097436;28;20492;-65
2022/06/16 04:30:48;;;;;;;5.72;2.70;;;;;;;20.56;41.85;101957.91;5100845;28;20096;-66
2022/06/16 04:33:16;;;;;;;7.05;2.75;;;;;;;20.54;41.96;101959.25;5098811;28;20127;-65
2022/06/16 04:35:43;;;;;;;4.13;2.17;;;;;;;20.51;41.97;101957.88;5100036;28;20059;-66
2022/06/16 04:38:11;;;;;;;5.60;2.35;;;;;;;20.49;42.01;101957.31;5103758;28;20050;-65
2022/06/16 04:40:40;;;;;;;3.60;2.33;;;;;;;20.47;42.01;101962.22;5095865;28;20056;-66
2022/06/16 04:43:08;;;;;;;5.63;2.60;;;;;;;20.45;42.02;101962.47;5099879;28;20561;-67
2022/06/16 04:45:37;;;;;;;5.63;2.33;;;;;;;20.44;41.92;101966.28;5097619;28;20159;-65
2022/06/16 04:48:06;;;;;;;5.63;2.60;;;;;;;20.43;42.09;101961.09;5094205;28;20041;-65
2022/06/16 04:50:34;;;;;;;6.03;2.40;;;;;;;20.41;41.98;101960.53;5098200;28;20064;-65
2022/06/16 04:53:01;;;;;;;5.35;2.67;;;;;;;20.39;41.79;101968.16;5102788;28;20146;-65
2022/06/16 04:55:30;;;;;;;7.30;3.47;;;;;;;20.38;41.88;101971.94;5098894;28;20087;-65
2022/06/16 04:57:58;;;;;;;6.65;2.60;;;;;;;20.38;41.76;101980.97;5100378;28;20044;-65
2022/06/16 05:00:26;;;;;;;3.70;2.40;;;;;;;20.38;41.89;101978.25;5095669;28;20086;-66
2022/06/16 05:02:55;;;;;;;5.05;2.47;;;;;;;20.38;41.98;101971.94;5098787;28;20136;-66
2022/06/16 05:05:23;;;;;;;5.93;2.42;;;;;;;20.41;41.96;101979.63;5092507;28;20047;-68
2022/06/16 05:07:51;;;;;;;4.85;3.13;;;;;;;20.40;41.94;101976.09;5098733;28;20060;-66
2022/06/16 05:10:19;;;;;;;5.20;2.35;;;;;;;20.43;41.78;101986.50;5099411;28;20059;-65
2022/06/16 05:12:46;;;;;;;4.28;2.47;;;;;;;20.43;41.69;101981.03;5105114;28;20052;-65
2022/06/16 05:15:14;;;;;;;4.53;2.35;;;;;;;20.45;41.60;101992.50;5101765;28;20078;-66
2022/06/16 05:17:42;;;;;;;5.70;2.63;;;;;;;20.48;41.57;101991.16;5102596;28;20036;-66
2022/06/16 05:20:12;;;;;;;6.18;3.03;;;;;;;20.50;41.58;101999.94;5103192;28;20048;-68
2022/06/16 05:22:39;;;;;;;5.32;2.58;;;;;;;20.53;41.45;101995.84;5097590;28;20083;-68
2022/06/16 05:25:08;;;;;;;5.05;2.80;;;;;;;20.55;41.38;102001.88;5099497;28;20086;-68
2022/06/16 05:27:36;;;;;;;5.57;2.58;;;;;;;20.57;41.54;101999.72;5100678;28;20060;-68
2022/06/16 05:30:05;;;;;;;5.15;2.60;;;;;;;20.59;41.25;102003.00;5103827;28;20082;-68
2022/06/16 05:32:33;;;;;;;8.23;2.80;;;;;;;20.61;41.30;102003.56;5104841;28;20052;-69
2022/06/16 05:35:01;;;;;;;5.15;2.67;;;;;;;20.62;41.34;102008.78;5100360;28;20112;-68
2022/06/16 05:37:32;;;;;;;4.22;2.58;;;;;;;20.65;41.38;102019.19;5099428;28;20083;-68
2022/06/16 05:39:59;;;;;;;5.03;2.83;;;;;;;20.66;41.23;102020.81;5101516;28;20044;-70
2022/06/16 05:42:27;;;;;;;7.30;2.78;;;;;;;20.67;41.27;102021.66;5101031;28;20155;-70
2022/06/16 05:44:55;;;;;;;4.97;2.60;;;;;;;20.65;41.27;102019.19;5094018;28;20051;-71
2022/06/16 05:47:23;;;;;;;5.63;3.10;;;;;;;20.68;41.17;102026.84;4745156;28;10000064;-70
2022/06/16 05:49:50;;;;;;;6.50;2.70;;;;;;;20.69;41.10;102039.44;5100602;28;20110;-70
2022/06/16 05:52:20;;;;;;;4.55;2.50;;;;;;;20.70;41.02;102046.53;5098820;28;20064;-70
2022/06/16 05:54:50;;;;;;;4.40;2.35;;;;;;;20.69;40.95;102039.44;5098244;28;20116;-70
2022/06/16 05:57:17;;;;;;;5.10;2.60;;;;;;;20.71;40.67;102036.44;5098121;28;20289;-70
2022/06/16 05:59:45;;;;;;;7.72;2.47;;;;;;;20.72;40.72;102040.81;5101062;28;20063;-70
2022/06/16 06:02:15;;;;;;;4.65;2.60;;;;;;;20.72;40.61;102044.38;5096733;28;20438;-69
2022/06/16 06:04:47;;;;;;;3.55;2.00;;;;;;;20.68;40.46;102043.25;5098526;28;20082;-70
2022/06/16 06:07:15;;;;;;;4.43;2.38;;;;;;;20.73;40.65;102062.41;5103182;28;20040;-70
2022/06/16 06:18:22;;;;;;;7.68;2.45;;;;;;;20.79;40.24;102055.09;5102551;28;20136;-67
2022/06/16 06:20:50;;;;;;;5.35;2.63;;;;;;;20.78;40.22;102048.78;5093641;28;20090;-68
2022/06/16 06:23:18;;;;;;;4.85;2.78;;;;;;;20.80;40.10;102054.00;5104377;28;20051;-68
2022/06/16 06:25:45;;;;;;;6.30;2.30;;;;;;;20.81;40.14;102050.16;5097393;28;20072;-68
2022/06/16 06:28:20;;;;;;;4.18;2.22;;;;;;;20.83;40.10;102055.34;5102820;28;20080;-68
2022/06/16 06:30:48;;;;;;;3.42;1.80;;;;;;;20.82;40.16;102057.25;5096924;28;20526;-68
2022/06/16 06:33:16;;;;;;;4.65;2.05;;;;;;;20.86;40.14;102054.81;5104159;28;20047;-68
2022/06/16 06:35:45;;;;;;;5.00;2.20;;;;;;;20.87;40.02;102054.56;5103723;28;20113;-67
2022/06/16 06:38:12;;;;;;;4.85;2.17;;;;;;;20.88;39.96;102061.69;5095928;28;20079;-68
2022/06/16 06:40:40;;;;;;;8.15;2.35;;;;;;;20.90;39.89;102059.50;5102413;28;20075;-67
2022/06/16 06:43:08;;;;;;;4.97;2.47;;;;;;;20.91;39.90;102058.44;5103091;28;20094;-67
2022/06/16 06:45:38;;;;;;;4.45;2.20;;;;;;;20.92;39.75;102054.59;5094689;28;20056;-68
2022/06/16 06:48:07;;;;;;;6.57;2.22;;;;;;;20.93;39.70;102045.31;5103533;28;20094;-68
2022/06/16 06:50:37;;;;;;;6.80;2.38;;;;;;;20.93;39.83;102049.97;5103790;28;20051;-67
2022/06/16 06:53:05;;;;;;;7.45;1.88;;;;;;;20.97;39.76;102054.66;5102141;28;20366;-68
2022/06/16 06:55:34;;;;;;;4.13;2.15;;;;;;;20.98;39.56;102060.94;5103416;28;20090;-68
2022/06/16 06:58:02;;;;;;;5.85;2.03;;;;;;;21.00;39.45;102069.69;5083942;28;20370;-68
2022/06/16 07:00:32;;;;;;;6.35;2.25;;;;;;;21.00;39.39;102077.91;5095987;28;20090;-68
2022/06/16 07:03:01;;;;;;;4.00;1.95;;;;;;;20.99;39.29;102073.53;5097456;28;20157;-68
2022/06/16 07:05:29;;;;;;;6.38;2.00;;;;;;;21.01;39.25;102076.81;5098008;28;20089;-68
2022/06/16 07:07:58;;;;;;;4.68;1.90;;;;;;;21.00;39.05;102089.66;5099056;28;20052;-67
2022/06/16 07:10:27;;;;;;;6.22;1.90;;;;;;;21.02;39.10;102089.41;5100749;28;20051;-67
2022/06/16 07:12:54;;;;;;;4.72;2.13;;;;;;;21.03;38.98;102104.72;5102535;28;20059;-68
2022/06/16 07:15:23;;;;;;;5.75;1.50;;;;;;;21.02;38.93;102094.88;5101882;28;20051;-68
2022/06/16 07:17:51;;;;;;;3.58;1.80;;;;;;;21.02;38.89;102094.88;5100065;28;20455;-67
2022/06/16 07:20:20;;;;;;;4.40;2.05;;;;;;;21.02;38.81;102103.88;5103760;28;20048;-67
2022/06/16 07:22:48;;;;;;;4.28;1.80;;;;;;;21.03;39.01;102115.66;5095002;28;20508;-67
2022/06/16 07:25:16;;;;;;;3.90;1.75;;;;;;;21.03;38.86;102115.66;5089973;28;20055;-68
2022/06/16 07:27:44;;;;;;;5.10;1.50;;;;;;;21.03;38.80;102113.75;5103186;28;20040;-68
2022/06/16 07:30:16;;;;;;;6.93;2.47;;;;;;;21.03;38.82;102119.19;5101802;28;20090;-68
2022/06/16 07:32:45;;;;;;;4.70;2.25;;;;;;;21.03;38.72;102126.59;5088794;28;20045;-68
2022/06/16 07:35:15;;;;;;;4.30;1.83;;;;;;;21.03;38.61;102132.03;5102942;28;20059;-68
2022/06/16 07:37:45;;;;;;;4.10;1.83;;;;;;;20.99;38.52;102131.75;5102947;28;20071;-68
2022/06/16 07:40:14;;;;;;;6.15;1.83;;;;;;;21.02;38.40;102152.25;5097960;28;20048;-68
2022/06/16 07:42:44;;;;;;;5.90;1.80;;;;;;;20.96;38.19;102145.09;5091283;28;20076;-68
2022/06/16 07:45:13;;;;;;;6.13;1.98;;;;;;;21.00;38.10;102151.69;5101902;28;20052;-68
2022/06/16 07:47:42;;;;;;;4.45;2.15;;;;;;;21.00;38.14;102147.06;5098967;28;20048;-68
2022/06/16 07:50:12;;;;;;;7.20;2.20;;;;;;;21.00;38.09;102151.69;5102866;28;20559;-69
2022/06/16 07:52:40;;;;;;;2.72;1.90;;;;;;;21.01;37.98;102154.19;5103613;28;20112;-68
2022/06/16 07:55:10;;;;;;;5.93;1.60;;;;;;;20.97;38.06;102146.75;5101294;28;20055;-68
2022/06/16 07:57:43;;;;;;;6.18;1.90;;;;;;;21.04;38.30;102150.91;5096924;28;20114;-67
2022/06/16 08:00:13;;;;;;;4.40;2.10;;;;;;;21.06;38.44;102156.94;5100322;28;20055;-67
2022/06/16 08:02:40;;;;;;;5.13;1.80;;;;;;;21.09;38.50;102155.59;5098207;28;20530;-67
2022/06/16 08:05:11;;;;;;;4.57;1.45;;;;;;;21.01;38.61;102151.44;5094775;28;20063;-67
2022/06/16 08:07:39;;;;;;;3.42;1.70;;;;;;;21.12;38.48;102164.13;5102722;28;20048;-66
2022/06/16 08:10:12;;;;;;;7.03;1.80;;;;;;;21.13;38.53;102167.69;5088568;28;20053;-68
2022/06/16 08:12:40;;;;;;;5.13;1.67;;;;;;;21.13;38.58;102165.75;5097030;28;20101;-67
2022/06/16 08:15:10;;;;;;;4.38;1.33;;;;;;;21.15;38.54;102170.97;5099247;28;20059;-67
2022/06/16 08:17:45;;;;;;;4.95;2.05;;;;;;;21.15;38.54;102170.97;5101686;28;20197;-67
2022/06/16 08:20:14;;;;;;;3.13;1.70;;;;;;;21.17;38.68;102168.81;5102358;28;20056;-67
2022/06/16 08:22:42;;;;;;;5.28;1.70;;;;;;;21.16;38.55;102167.16;5094681;28;20068;-67
2022/06/16 08:25:13;;;;;;;4.88;2.05;;;;;;;21.06;38.64;102147.94;5102568;28;20055;-67
2022/06/16 08:27:43;;;;;;;4.15;1.70;;;;;;;21.18;38.34;102164.16;5104535;28;20055;-66
2022/06/16 08:30:15;;;;;;;4.95;1.80;;;;;;;21.18;38.33;102164.16;5102859;28;20047;-67
2022/06/16 08:32:43;;;;;;;3.22;1.67;;;;;;;21.18;38.20;102164.97;5099143;28;20077;-67
2022/06/16 08:35:12;;;;;;;6.88;1.90;;;;;;;21.18;37.99;102175.09;5106259;28;20524;-68
2022/06/16 08:37:40;;;;;;;8.25;2.50;;;;;;;21.19;37.98;102174.00;5101931;28;20072;-66
2022/06/16 08:40:09;;;;;;;4.78;1.65;;;;;;;21.19;37.97;102165.81;5101561;28;20395;-67
2022/06/16 08:42:43;;;;;;;3.58;1.67;;;;;;;21.19;37.85;102158.44;5099638;28;20044;-67
2022/06/16 08:45:22;;;;;;;5.88;2.10;;;;;;;21.20;37.81;102160.06;5093731;28;20058;-67
2022/06/16 08:47:57;;;;;;;3.83;1.50;;;;;;;21.21;37.95;102167.19;5105584;28;20051;-67
2022/06/16 08:50:33;;;;;;;8.15;1.98;;;;;;;21.23;37.97;102166.97;5096458;28;20048;-68
2022/06/16 08:53:15;;;;;;;2.78;1.30;;;;;;;21.24;38.03;102171.34;5105530;28;20048;-68
2022/06/16 08:55:52;;;;;;;3.00;1.50;;;;;;;21.27;38.35;102168.91;5105640;28;20044;-68
2022/06/16 08:58:31;;;;;;;4.88;1.48;;;;;;;21.30;38.31;102178.50;5106075;28;20055;-69
2022/06/16 09:01:05;;;;;;;4.40;2.00;;;;;;;21.32;38.39;102190.84;5101162;28;20080;-68
2022/06/16 09:03:40;;;;;;;3.83;1.40;;;;;;;21.34;38.38;102187.84;5105713;28;20052;-68
2022/06/16 09:06:22;;;;;;;8.68;1.80;;;;;;;21.37;38.47;102195.53;5105718;28;20044;-68
2022/06/16 09:09:01;;;;;;;3.25;1.65;;;;;;;21.40;38.51;102192.25;5095843;28;20048;-66
2022/06/16 09:11:36;;;;;;;4.40;1.83;;;;;;;21.40;38.48;102193.09;5092785;28;20055;-68
2022/06/16 09:17:29;;;;;;;4.07;1.48;;;;;;;21.48;38.75;102205.47;5098139;28;20078;-67
2022/06/16 09:20:04;;;;;;;3.80;1.80;;;;;;;21.50;38.89;102197.00;5105502;28;20504;-68
2022/06/16 09:22:48;;;;;;;2.25;1.50;;;;;;;21.49;38.94;102198.91;5104874;28;20094;-68
2022/06/16 09:25:32;;;;;;;7.65;1.80;;;;;;;21.54;38.74;102201.69;5091926;28;20465;-68
2022/06/16 09:28:05;;;;;;;5.63;1.70;;;;;;;21.56;38.92;102194.03;5097546;28;20063;-68
2022/06/16 09:30:38;;;;;;;4.05;1.65;;;;;;;21.59;38.94;102192.69;5101867;28;20052;-68
2022/06/16 09:33:10;;;;;;;3.75;1.73;;;;;;;21.63;39.12;102202.84;5098982;28;20076;-68
2022/06/16 09:35:43;;;;;;;5.78;2.33;;;;;;;21.64;39.01;102196.28;5103757;28;20079;-68
2022/06/16 09:38:20;;;;;;;3.78;1.75;;;;;;;21.60;38.79;102188.84;5099277;28;20063;-68
2022/06/16 09:40:52;;;;;;;7.20;1.83;;;;;;;21.67;38.79;102214.91;5102269;28;20078;-68
2022/06/16 09:43:28;;;;;;;4.55;1.80;;;;;;;21.67;38.56;102203.97;5104925;28;20071;-68
2022/06/16 09:46:02;;;;;;;6.38;1.92;;;;;;;21.68;38.53;102200.13;5102058;28;20066;-67
2022/06/16 09:48:36;;;;;;;4.75;1.70;;;;;;;21.68;38.62;102202.88;5101765;28;20138;-68
2022/06/16 09:51:08;;;;;;;10.65;2.47;;;;;;;21.71;38.50;102205.09;5101088;28;20040;-68
2022/06/16 09:53:41;;;;;;;6.28;2.25;;;;;;;21.75;38.72;102199.91;5104903;28;20044;-68
2022/06/16 09:56:13;;;;;;;8.27;2.42;;;;;;;21.78;38.52;102199.38;5101583;28;20166;-68
2022/06/16 09:58:47;;;;;;;9.93;2.28;;;;;;;21.81;38.62;102198.84;5103705;28;20047;-68
2022/06/16 10:01:19;;;;;;;3.80;1.90;;;;;;;21.85;38.89;102191.75;5104625;28;20073;-68
2022/06/16 10:03:56;;;;;;;3.70;1.70;;;;;;;21.89;39.04;102198.34;5102986;28;20063;-68
2022/06/16 10:06:31;;;;;;;5.57;1.95;;;;;;;21.94;39.10;102192.91;5099131;28;20159;-68
2022/06/16 10:09:11;;;;;;;5.45;1.70;;;;;;;21.99;38.86;102181.16;5104526;28;20354;-68
2022/06/16 10:11:49;;;;;;;5.20;2.10;;;;;;;22.05;39.07;102196.56;5102494;28;20048;-68
2022/06/16 10:14:22;;;;;;;3.95;1.90;;;;;;;22.08;39.12;102190.56;5099486;28;20045;-68
2022/06/16 10:16:56;;;;;;;7.85;2.08;;;;;;;22.16;39.63;102200.16;5103832;28;20048;-68
2022/06/16 10:19:28;;;;;;;3.72;1.63;;;;;;;22.21;39.33;102200.19;5095139;28;20059;-68
2022/06/16 10:21:56;;;;;;;4.43;2.38;;;;;;;22.22;39.21;102199.09;5104724;28;20052;-68
2022/06/16 10:24:26;;;;;;;5.35;2.20;;;;;;;22.22;38.94;102202.66;5104233;28;20052;-68
2022/06/16 10:26:57;;;;;;;5.78;2.10;;;;;;;22.21;38.92;102213.88;5095665;28;20075;-68
2022/06/16 10:29:28;;;;;;;7.20;2.42;;;;;;;22.19;38.87;102221.53;5103634;28;20052;-68
2022/06/16 10:31:59;;;;;;;8.63;1.88;;;;;;;22.21;38.93;102216.63;5104124;28;20063;-68
2022/06/16 10:34:31;;;;;;;4.25;2.00;;;;;;;22.22;39.05;102221.00;5091502;28;20052;-68
2022/06/16 10:37:06;;;;;;;4.47;1.90;;;;;;;22.23;38.81;102223.50;5104097;28;20127;-68
2022/06/16 10:39:43;;;;;;;4.05;1.92;;;;;;;22.24;38.75;102224.31;5103970;28;20041;-68
2022/06/16 10:42:19;;;;;;;3.75;2.20;;;;;;;22.26;38.73;102222.94;5085680;28;20048;-68
2022/06/16 10:44:53;;;;;;;4.18;1.77;;;;;;;22.26;38.90;102212.00;5100073;28;20052;-68
2022/06/16 10:47:28;;;;;;;4.25;2.03;;;;;;;22.35;38.98;102212.31;5096837;28;20104;-68
2022/06/16 10:49:56;;;;;;;6.95;2.35;;;;;;;22.40;38.84;102213.16;5102251;28;20052;-68
2022/06/16 10:52:30;;;;;;;3.88;2.00;;;;;;;22.45;38.97;102206.88;5103558;28;20086;-68
2022/06/16 10:55:05;;;;;;;5.93;1.80;;;;;;;22.52;38.86;102201.16;5103928;28;20044;-68
2022/06/16 10:57:41;;;;;;;3.63;1.83;;;;;;;22.56;39.25;102197.56;5097563;28;20060;-68
2022/06/16 11:00:14;;;;;;;3.53;2.00;;;;;;;22.63;39.18;102189.91;5103080;28;20317;-67
2022/06/16 11:02:57;;;;;;;3.97;1.90;;;;;;;22.69;39.15;102191.56;5098288;28;20055;-68
2022/06/16 11:05:27;;;;;;;4.47;1.90;;;;;;;22.77;39.39;102195.69;5101902;28;20140;-67
2022/06/16 11:08:06;;;;;;;5.20;2.25;;;;;;;22.85;39.35;102200.69;5103336;28;20044;-68
2022/06/16 11:10:54;;;;;;;3.35;1.60;;;;;;;22.91;39.33;102187.81;5091763;28;20070;-68
2022/06/16 11:13:28;;;;;;;5.47;2.00;;;;;;;23.05;39.44;102183.44;5102680;28;20500;-68
2022/06/16 11:15:57;;;;;;;5.07;2.10;;;;;;;23.11;39.54;102190.56;5103792;28;20071;-68
2022/06/16 11:18:29;;;;;;;2.90;1.58;;;;;;;23.17;39.21;102194.97;5102506;28;20127;-68
2022/06/16 11:21:00;;;;;;;3.15;1.52;;;;;;;23.21;39.33;102193.31;5103372;28;20040;-68
2022/06/16 11:23:31;;;;;;;5.95;1.67;;;;;;;23.27;39.46;102188.66;5103322;28;20105;-67
2022/06/16 11:26:07;;;;;;;10.60;2.13;;;;;;;23.31;39.23;102187.00;5102940;28;20048;-68
2022/06/16 11:28:43;;;;;;;4.68;2.08;;;;;;;23.33;39.42;102193.88;5100314;28;20078;-69
2022/06/16 11:31:14;;;;;;;;;;;;;;;23.32;38.94;102183.19;5104739;28;20048;-68
2022/06/16 11:34:08;;;;;;;6.50;2.13;;;;;;;23.37;39.93;102188.66;5093847;28;19920;-67
2022/06/16 11:37:08;;;;;;;6.35;2.13;;;;;;;23.29;38.77;102181.81;5104348;28;20039;-67
2022/06/16 11:39:48;;;;;;;5.43;2.13;;;;;;;23.42;39.14;102191.41;5100382;28;20048;-68
2022/06/16 11:42:29;;;;;;;3.28;1.70;;;;;;;23.47;39.39;102190.56;5102103;28;20066;-68
2022/06/16 11:45:05;;;;;;;4.78;1.98;;;;;;;23.51;39.15;102189.75;5107077;28;20070;-69
2022/06/16 11:47:46;;;;;;;;;;;;;;;23.54;39.09;102185.66;5107364;28;20044;-68
2022/06/16 11:50:27;;;;;;;3.83;1.42;;;;;;;23.62;39.59;102185.91;5105528;28;19966;-68
2022/06/16 11:53:07;;;;;;;4.28;1.80;;;;;;;23.71;39.53;102177.13;5105260;28;20054;-67
2022/06/16 11:55:40;;;;;;;2.15;1.50;;;;;;;23.80;38.53;102192.75;5090907;28;20083;-68
2022/06/16 11:58:21;;;;;;;3.67;1.65;;;;;;;23.80;38.08;102192.75;5103066;28;20083;-68
2022/06/16 12:00:58;;;;;;;3.87;1.77;;;;;;;23.83;38.60;102194.94;5100663;28;20040;-68
2022/06/16 12:03:58;;;;;;;4.70;1.90;;;;;;;23.88;38.94;102199.59;5095873;28;20103;-68
2022/06/16 12:06:52;;;;;;;3.35;1.60;;;;;;;23.89;38.03;102207.56;5102949;28;20049;-68
2022/06/16 12:09:32;;;;;;;5.95;2.15;;;;;;;23.89;38.08;102199.31;5090513;28;20123;-67